sensor_id;sensor_type;location;lat;lon;timestamp;P1;durP1;ratioP1;P2;durP2;ratioP2
76978;SDS011;65911;47.502;19.148;2023-05-29T00:01:27;6.88;;;3.58;;
76978;SDS011;65911;47.502;19.148;2023-05-29T00:04:29;7.95;;;3.28;;
76978;SDS011;65911;47.502;19.148;2023-05-29T00:07:31;5.07;;;3.00;;
76978;SDS011;65911;47.502;19.148;2023-05-29T00:10:37;8.57;;;3.35;;
76978;SDS011;65911;47.502;19.148;2023-05-29T00:13:39;5.57;;;3.30;;
76978;SDS011;65911;47.502;19.148;2023-05-29T00:16:42;5.32;;;3.00;;
76978;SDS011;65911;47.502;19.148;2023-05-29T00:19:46;6.10;;;3.25;;
76978;SDS011;65911;47.502;19.148;2023-05-29T00:22:48;7.07;;;3.03;;
76978;SDS011;65911;47.502;19.148;2023-05-29T00:25:51;6.00;;;3.28;;
76978;SDS011;65911;47.502;19.148;2023-05-29T00:28:53;6.77;;;3.03;;
76978;SDS011;65911;47.502;19.148;2023-05-29T00:31:55;7.13;;;3.33;;
76978;SDS011;65911;47.502;19.148;2023-05-29T00:34:58;6.30;;;3.38;;
76978;SDS011;65911;47.502;19.148;2023-05-29T00:38:00;5.10;;;3.27;;
76978;SDS011;65911;47.502;19.148;2023-05-29T00:41:02;7.53;;;2.95;;
76978;SDS011;65911;47.502;19.148;2023-05-29T00:44:05;6.15;;;2.90;;
76978;SDS011;65911;47.502;19.148;2023-05-29T00:47:07;4.43;;;2.53;;
76978;SDS011;65911;47.502;19.148;2023-05-29T00:50:09;5.68;;;2.75;;
76978;SDS011;65911;47.502;19.148;2023-05-29T00:53:12;5.35;;;3.20;;
76978;SDS011;65911;47.502;19.148;2023-05-29T00:56:15;5.60;;;3.50;;
76978;SDS011;65911;47.502;19.148;2023-05-29T00:59:18;6.27;;;3.30;;
76978;SDS011;65911;47.502;19.148;2023-05-29T01:02:23;5.97;;;3.17;;
76978;SDS011;65911;47.502;19.148;2023-05-29T01:05:25;5.57;;;2.95;;
76978;SDS011;65911;47.502;19.148;2023-05-29T01:08:28;5.23;;;3.10;;
76978;SDS011;65911;47.502;19.148;2023-05-29T01:11:41;5.28;;;3.42;;
76978;SDS011;65911;47.502;19.148;2023-05-29T01:18:07;5.22;;;3.13;;
76978;SDS011;65911;47.502;19.148;2023-05-29T01:21:39;6.10;;;3.33;;
76978;SDS011;65911;47.502;19.148;2023-05-29T01:28:10;8.63;;;3.65;;
76978;SDS011;65911;47.502;19.148;2023-05-29T01:31:16;6.53;;;3.37;;
76978;SDS011;65911;47.502;19.148;2023-05-29T01:34:21;5.78;;;2.83;;
76978;SDS011;65911;47.502;19.148;2023-05-29T01:37:24;5.45;;;2.75;;
76978;SDS011;65911;47.502;19.148;2023-05-29T01:40:26;6.97;;;3.10;;
76978;SDS011;65911;47.502;19.148;2023-05-29T01:43:29;5.90;;;3.17;;
76978;SDS011;65911;47.502;19.148;2023-05-29T01:46:32;5.82;;;2.80;;
76978;SDS011;65911;47.502;19.148;2023-05-29T01:49:34;7.05;;;3.15;;
76978;SDS011;65911;47.502;19.148;2023-05-29T01:52:42;5.63;;;3.10;;
76978;SDS011;65911;47.502;19.148;2023-05-29T01:55:45;6.82;;;3.13;;
76978;SDS011;65911;47.502;19.148;2023-05-29T01:58:47;5.88;;;3.10;;
76978;SDS011;65911;47.502;19.148;2023-05-29T02:01:50;4.57;;;2.70;;
76978;SDS011;65911;47.502;19.148;2023-05-29T02:04:52;6.75;;;3.13;;
76978;SDS011;65911;47.502;19.148;2023-05-29T02:07:55;6.63;;;2.70;;
76978;SDS011;65911;47.502;19.148;2023-05-29T02:10:57;4.77;;;2.80;;
76978;SDS011;65911;47.502;19.148;2023-05-29T02:13:59;5.82;;;3.05;;
76978;SDS011;65911;47.502;19.148;2023-05-29T02:17:05;5.10;;;2.72;;
76978;SDS011;65911;47.502;19.148;2023-05-29T02:20:08;5.70;;;2.95;;
76978;SDS011;65911;47.502;19.148;2023-05-29T02:23:11;6.10;;;3.00;;
76978;SDS011;65911;47.502;19.148;2023-05-29T02:26:14;5.05;;;2.55;;
76978;SDS011;65911;47.502;19.148;2023-05-29T02:29:18;7.13;;;3.03;;
76978;SDS011;65911;47.502;19.148;2023-05-29T02:32:20;6.00;;;2.77;;
76978;SDS011;65911;47.502;19.148;2023-05-29T02:35:24;5.15;;;2.95;;
76978;SDS011;65911;47.502;19.148;2023-05-29T02:38:26;5.95;;;2.80;;
76978;SDS011;65911;47.502;19.148;2023-05-29T02:41:28;6.13;;;2.87;;
76978;SDS011;65911;47.502;19.148;2023-05-29T02:44:32;6.30;;;2.97;;
76978;SDS011;65911;47.502;19.148;2023-05-29T02:47:34;5.07;;;3.08;;
76978;SDS011;65911;47.502;19.148;2023-05-29T02:50:37;5.63;;;2.92;;
76978;SDS011;65911;47.502;19.148;2023-05-29T02:53:39;5.80;;;2.97;;
76978;SDS011;65911;47.502;19.148;2023-05-29T02:56:42;7.70;;;3.10;;
76978;SDS011;65911;47.502;19.148;2023-05-29T02:59:45;6.55;;;3.05;;
76978;SDS011;65911;47.502;19.148;2023-05-29T03:02:48;5.17;;;3.10;;
76978;SDS011;65911;47.502;19.148;2023-05-29T03:05:50;5.07;;;3.30;;
76978;SDS011;65911;47.502;19.148;2023-05-29T03:08:52;9.25;;;2.83;;
76978;SDS011;65911;47.502;19.148;2023-05-29T03:11:54;6.27;;;2.90;;
76978;SDS011;65911;47.502;19.148;2023-05-29T03:14:57;8.40;;;3.50;;
76978;SDS011;65911;47.502;19.148;2023-05-29T03:18:00;5.00;;;2.95;;
76978;SDS011;65911;47.502;19.148;2023-05-29T03:21:04;5.15;;;2.80;;
76978;SDS011;65911;47.502;19.148;2023-05-29T03:24:08;5.70;;;3.00;;
76978;SDS011;65911;47.502;19.148;2023-05-29T03:27:12;5.25;;;3.00;;
76978;SDS011;65911;47.502;19.148;2023-05-29T03:30:16;4.88;;;2.88;;
76978;SDS011;65911;47.502;19.148;2023-05-29T03:33:18;5.13;;;2.47;;
76978;SDS011;65911;47.502;19.148;2023-05-29T03:36:39;5.07;;;2.88;;
76978;SDS011;65911;47.502;19.148;2023-05-29T03:39:42;6.20;;;3.00;;
76978;SDS011;65911;47.502;19.148;2023-05-29T03:42:45;4.70;;;3.40;;
76978;SDS011;65911;47.502;19.148;2023-05-29T03:45:50;6.30;;;3.00;;
76978;SDS011;65911;47.502;19.148;2023-05-29T03:48:52;5.80;;;3.45;;
76978;SDS011;65911;47.502;19.148;2023-05-29T03:51:55;4.50;;;2.42;;
76978;SDS011;65911;47.502;19.148;2023-05-29T03:54:58;5.93;;;3.20;;
76978;SDS011;65911;47.502;19.148;2023-05-29T03:58:01;5.55;;;2.88;;
76978;SDS011;65911;47.502;19.148;2023-05-29T04:01:03;5.40;;;3.17;;
76978;SDS011;65911;47.502;19.148;2023-05-29T04:04:06;5.57;;;3.23;;
76978;SDS011;65911;47.502;19.148;2023-05-29T04:07:09;4.95;;;2.65;;
76978;SDS011;65911;47.502;19.148;2023-05-29T04:10:11;7.38;;;3.30;;
76978;SDS011;65911;47.502;19.148;2023-05-29T04:13:14;8.07;;;3.20;;
76978;SDS011;65911;47.502;19.148;2023-05-29T04:16:16;10.13;;;3.45;;
76978;SDS011;65911;47.502;19.148;2023-05-29T04:19:19;5.88;;;3.03;;
76978;SDS011;65911;47.502;19.148;2023-05-29T04:22:22;5.45;;;3.00;;
76978;SDS011;65911;47.502;19.148;2023-05-29T04:25:25;4.47;;;2.83;;
76978;SDS011;65911;47.502;19.148;2023-05-29T04:28:27;5.38;;;2.85;;
76978;SDS011;65911;47.502;19.148;2023-05-29T04:31:30;7.13;;;2.85;;
76978;SDS011;65911;47.502;19.148;2023-05-29T04:34:33;6.53;;;2.83;;
76978;SDS011;65911;47.502;19.148;2023-05-29T04:37:36;4.00;;;2.88;;
76978;SDS011;65911;47.502;19.148;2023-05-29T04:40:42;6.30;;;3.05;;
76978;SDS011;65911;47.502;19.148;2023-05-29T04:43:49;5.23;;;2.50;;
76978;SDS011;65911;47.502;19.148;2023-05-29T04:46:53;5.28;;;2.60;;
76978;SDS011;65911;47.502;19.148;2023-05-29T04:49:55;4.45;;;2.53;;
76978;SDS011;65911;47.502;19.148;2023-05-29T04:52:58;5.50;;;2.80;;
76978;SDS011;65911;47.502;19.148;2023-05-29T04:56:00;6.88;;;2.70;;
76978;SDS011;65911;47.502;19.148;2023-05-29T04:59:03;6.07;;;2.92;;
76978;SDS011;65911;47.502;19.148;2023-05-29T05:02:05;5.20;;;3.13;;
76978;SDS011;65911;47.502;19.148;2023-05-29T05:05:08;5.60;;;2.73;;
76978;SDS011;65911;47.502;19.148;2023-05-29T05:08:11;4.78;;;2.85;;
76978;SDS011;65911;47.502;19.148;2023-05-29T05:11:14;6.20;;;3.03;;
76978;SDS011;65911;47.502;19.148;2023-05-29T05:14:16;5.97;;;2.60;;
76978;SDS011;65911;47.502;19.148;2023-05-29T05:17:18;5.63;;;2.90;;
76978;SDS011;65911;47.502;19.148;2023-05-29T05:20:22;5.43;;;2.80;;
76978;SDS011;65911;47.502;19.148;2023-05-29T05:23:30;5.22;;;2.63;;
76978;SDS011;65911;47.502;19.148;2023-05-29T05:26:45;6.30;;;2.78;;
76978;SDS011;65911;47.502;19.148;2023-05-29T05:29:48;5.68;;;3.08;;
76978;SDS011;65911;47.502;19.148;2023-05-29T05:32:50;7.68;;;2.80;;
76978;SDS011;65911;47.502;19.148;2023-05-29T05:35:53;4.90;;;2.93;;
76978;SDS011;65911;47.502;19.148;2023-05-29T05:38:55;6.03;;;2.85;;
76978;SDS011;65911;47.502;19.148;2023-05-29T05:41:58;3.97;;;2.53;;
76978;SDS011;65911;47.502;19.148;2023-05-29T05:45:29;4.37;;;2.53;;
76978;SDS011;65911;47.502;19.148;2023-05-29T05:48:31;4.13;;;2.40;;
76978;SDS011;65911;47.502;19.148;2023-05-29T05:51:34;3.78;;;2.20;;
76978;SDS011;65911;47.502;19.148;2023-05-29T05:54:37;5.57;;;2.75;;
76978;SDS011;65911;47.502;19.148;2023-05-29T05:57:39;4.97;;;2.47;;
76978;SDS011;65911;47.502;19.148;2023-05-29T06:00:42;4.75;;;2.63;;
76978;SDS011;65911;47.502;19.148;2023-05-29T06:03:44;5.60;;;3.20;;
76978;SDS011;65911;47.502;19.148;2023-05-29T06:06:47;3.60;;;2.40;;
76978;SDS011;65911;47.502;19.148;2023-05-29T06:09:49;5.35;;;3.10;;
76978;SDS011;65911;47.502;19.148;2023-05-29T06:12:52;8.07;;;2.80;;
76978;SDS011;65911;47.502;19.148;2023-05-29T06:15:59;9.17;;;3.03;;
76978;SDS011;65911;47.502;19.148;2023-05-29T06:19:01;5.90;;;2.70;;
76978;SDS011;65911;47.502;19.148;2023-05-29T06:22:08;3.88;;;2.55;;
76978;SDS011;65911;47.502;19.148;2023-05-29T06:25:12;5.40;;;3.20;;
76978;SDS011;65911;47.502;19.148;2023-05-29T06:28:14;7.28;;;2.38;;
76978;SDS011;65911;47.502;19.148;2023-05-29T06:31:17;6.28;;;2.75;;
76978;SDS011;65911;47.502;19.148;2023-05-29T06:34:19;4.95;;;3.22;;
76978;SDS011;65911;47.502;19.148;2023-05-29T06:37:22;7.63;;;2.77;;
76978;SDS011;65911;47.502;19.148;2023-05-29T06:40:24;5.18;;;2.42;;
76978;SDS011;65911;47.502;19.148;2023-05-29T06:43:27;6.80;;;2.95;;
76978;SDS011;65911;47.502;19.148;2023-05-29T06:46:32;7.27;;;3.43;;
76978;SDS011;65911;47.502;19.148;2023-05-29T06:49:35;7.18;;;2.72;;
76978;SDS011;65911;47.502;19.148;2023-05-29T06:52:38;5.63;;;2.45;;
76978;SDS011;65911;47.502;19.148;2023-05-29T06:55:59;5.68;;;2.58;;
76978;SDS011;65911;47.502;19.148;2023-05-29T06:59:01;5.68;;;3.00;;
76978;SDS011;65911;47.502;19.148;2023-05-29T07:02:05;5.70;;;3.00;;
76978;SDS011;65911;47.502;19.148;2023-05-29T07:05:08;4.85;;;2.88;;
76978;SDS011;65911;47.502;19.148;2023-05-29T07:08:11;5.90;;;2.40;;
76978;SDS011;65911;47.502;19.148;2023-05-29T07:11:14;5.28;;;2.92;;
76978;SDS011;65911;47.502;19.148;2023-05-29T07:14:16;6.80;;;3.03;;
76978;SDS011;65911;47.502;19.148;2023-05-29T07:17:19;5.43;;;2.50;;
76978;SDS011;65911;47.502;19.148;2023-05-29T07:20:28;5.40;;;2.65;;
76978;SDS011;65911;47.502;19.148;2023-05-29T07:23:30;6.05;;;2.55;;
76978;SDS011;65911;47.502;19.148;2023-05-29T07:26:33;8.00;;;2.45;;
76978;SDS011;65911;47.502;19.148;2023-05-29T07:29:37;6.10;;;2.47;;
76978;SDS011;65911;47.502;19.148;2023-05-29T07:32:39;5.22;;;2.60;;
76978;SDS011;65911;47.502;19.148;2023-05-29T07:35:42;4.85;;;3.20;;
76978;SDS011;65911;47.502;19.148;2023-05-29T07:38:45;5.07;;;2.70;;
76978;SDS011;65911;47.502;19.148;2023-05-29T07:41:49;5.25;;;2.38;;
76978;SDS011;65911;47.502;19.148;2023-05-29T07:44:51;3.80;;;2.50;;
76978;SDS011;65911;47.502;19.148;2023-05-29T07:47:54;5.77;;;2.93;;
76978;SDS011;65911;47.502;19.148;2023-05-29T07:50:56;4.20;;;2.60;;
76978;SDS011;65911;47.502;19.148;2023-05-29T07:54:02;5.50;;;2.80;;
76978;SDS011;65911;47.502;19.148;2023-05-29T07:57:04;5.85;;;2.83;;
76978;SDS011;65911;47.502;19.148;2023-05-29T08:00:13;6.78;;;2.80;;
76978;SDS011;65911;47.502;19.148;2023-05-29T08:03:21;6.85;;;2.83;;
76978;SDS011;65911;47.502;19.148;2023-05-29T08:06:39;4.57;;;2.40;;
76978;SDS011;65911;47.502;19.148;2023-05-29T08:09:44;4.63;;;2.47;;
76978;SDS011;65911;47.502;19.148;2023-05-29T08:12:46;5.60;;;2.63;;
76978;SDS011;65911;47.502;19.148;2023-05-29T08:15:49;8.50;;;2.70;;
76978;SDS011;65911;47.502;19.148;2023-05-29T08:18:52;9.73;;;2.80;;
76978;SDS011;65911;47.502;19.148;2023-05-29T08:21:54;5.88;;;2.30;;
76978;SDS011;65911;47.502;19.148;2023-05-29T08:24:56;5.88;;;2.60;;
76978;SDS011;65911;47.502;19.148;2023-05-29T08:27:58;8.45;;;3.05;;
76978;SDS011;65911;47.502;19.148;2023-05-29T08:31:00;4.55;;;2.80;;
76978;SDS011;65911;47.502;19.148;2023-05-29T08:34:03;5.32;;;2.60;;
76978;SDS011;65911;47.502;19.148;2023-05-29T08:37:05;7.22;;;2.97;;
76978;SDS011;65911;47.502;19.148;2023-05-29T08:40:07;5.63;;;2.30;;
76978;SDS011;65911;47.502;19.148;2023-05-29T08:43:20;5.28;;;2.83;;
76978;SDS011;65911;47.502;19.148;2023-05-29T08:46:23;5.28;;;2.45;;
76978;SDS011;65911;47.502;19.148;2023-05-29T08:49:26;6.73;;;2.63;;
76978;SDS011;65911;47.502;19.148;2023-05-29T08:52:33;3.90;;;2.30;;
76978;SDS011;65911;47.502;19.148;2023-05-29T08:55:39;5.78;;;2.83;;
76978;SDS011;65911;47.502;19.148;2023-05-29T08:58:42;5.22;;;2.67;;
76978;SDS011;65911;47.502;19.148;2023-05-29T09:01:46;6.67;;;2.60;;
76978;SDS011;65911;47.502;19.148;2023-05-29T09:04:48;4.72;;;2.22;;
76978;SDS011;65911;47.502;19.148;2023-05-29T09:07:51;5.63;;;2.47;;
76978;SDS011;65911;47.502;19.148;2023-05-29T09:10:53;5.70;;;2.40;;
76978;SDS011;65911;47.502;19.148;2023-05-29T09:13:57;7.40;;;2.80;;
76978;SDS011;65911;47.502;19.148;2023-05-29T09:17:00;5.72;;;2.90;;
76978;SDS011;65911;47.502;19.148;2023-05-29T09:20:02;4.63;;;2.90;;
76978;SDS011;65911;47.502;19.148;2023-05-29T09:23:07;7.03;;;2.53;;
76978;SDS011;65911;47.502;19.148;2023-05-29T09:26:10;4.25;;;2.42;;
76978;SDS011;65911;47.502;19.148;2023-05-29T09:29:16;5.05;;;2.60;;
76978;SDS011;65911;47.502;19.148;2023-05-29T09:32:18;7.43;;;2.37;;
76978;SDS011;65911;47.502;19.148;2023-05-29T09:35:20;4.22;;;2.35;;
76978;SDS011;65911;47.502;19.148;2023-05-29T09:38:23;4.45;;;2.70;;
76978;SDS011;65911;47.502;19.148;2023-05-29T09:41:45;8.00;;;2.50;;
76978;SDS011;65911;47.502;19.148;2023-05-29T09:44:51;5.35;;;2.70;;
76978;SDS011;65911;47.502;19.148;2023-05-29T09:47:54;4.63;;;2.70;;
76978;SDS011;65911;47.502;19.148;2023-05-29T09:50:56;7.35;;;2.97;;
76978;SDS011;65911;47.502;19.148;2023-05-29T09:54:12;7.37;;;2.50;;
76978;SDS011;65911;47.502;19.148;2023-05-29T09:57:16;5.47;;;3.08;;
76978;SDS011;65911;47.502;19.148;2023-05-29T10:00:19;4.97;;;2.90;;
76978;SDS011;65911;47.502;19.148;2023-05-29T10:03:21;4.80;;;2.70;;
76978;SDS011;65911;47.502;19.148;2023-05-29T10:06:24;7.18;;;2.78;;
76978;SDS011;65911;47.502;19.148;2023-05-29T10:09:27;4.43;;;2.70;;
76978;SDS011;65911;47.502;19.148;2023-05-29T10:12:29;7.00;;;2.70;;
76978;SDS011;65911;47.502;19.148;2023-05-29T10:15:34;6.80;;;2.67;;
76978;SDS011;65911;47.502;19.148;2023-05-29T10:18:38;6.50;;;2.63;;
76978;SDS011;65911;47.502;19.148;2023-05-29T10:21:41;5.20;;;3.00;;
76978;SDS011;65911;47.502;19.148;2023-05-29T10:24:46;5.90;;;3.03;;
76978;SDS011;65911;47.502;19.148;2023-05-29T10:27:50;5.72;;;2.78;;
76978;SDS011;65911;47.502;19.148;2023-05-29T10:37:44;5.53;;;2.53;;
76978;SDS011;65911;47.502;19.148;2023-05-29T10:40:50;4.95;;;2.67;;
76978;SDS011;65911;47.502;19.148;2023-05-29T10:44:01;5.95;;;2.80;;
76978;SDS011;65911;47.502;19.148;2023-05-29T10:47:05;5.40;;;2.33;;
76978;SDS011;65911;47.502;19.148;2023-05-29T10:50:07;6.70;;;3.08;;
76978;SDS011;65911;47.502;19.148;2023-05-29T10:53:18;5.07;;;2.72;;
76978;SDS011;65911;47.502;19.148;2023-05-29T10:56:28;7.97;;;3.00;;
76978;SDS011;65911;47.502;19.148;2023-05-29T10:59:35;5.57;;;2.83;;
76978;SDS011;65911;47.502;19.148;2023-05-29T11:02:38;7.18;;;3.00;;
76978;SDS011;65911;47.502;19.148;2023-05-29T11:12:58;6.13;;;3.25;;
76978;SDS011;65911;47.502;19.148;2023-05-29T11:19:31;7.27;;;3.57;;
76978;SDS011;65911;47.502;19.148;2023-05-29T11:25:51;10.23;;;3.08;;
76978;SDS011;65911;47.502;19.148;2023-05-29T11:29:02;4.50;;;3.10;;
76978;SDS011;65911;47.502;19.148;2023-05-29T11:32:06;6.40;;;3.10;;
76978;SDS011;65911;47.502;19.148;2023-05-29T11:35:11;7.75;;;3.30;;
76978;SDS011;65911;47.502;19.148;2023-05-29T11:38:15;6.32;;;3.35;;
76978;SDS011;65911;47.502;19.148;2023-05-29T11:41:17;5.23;;;3.23;;
76978;SDS011;65911;47.502;19.148;2023-05-29T11:44:21;6.00;;;3.08;;
76978;SDS011;65911;47.502;19.148;2023-05-29T11:47:26;8.63;;;3.35;;
76978;SDS011;65911;47.502;19.148;2023-05-29T11:50:32;5.63;;;2.95;;
76978;SDS011;65911;47.502;19.148;2023-05-29T11:53:35;4.78;;;2.72;;
76978;SDS011;65911;47.502;19.148;2023-05-29T11:56:38;8.68;;;3.42;;
76978;SDS011;65911;47.502;19.148;2023-05-29T11:59:42;6.60;;;2.97;;
76978;SDS011;65911;47.502;19.148;2023-05-29T12:02:44;6.40;;;3.20;;
76978;SDS011;65911;47.502;19.148;2023-05-29T12:05:51;5.75;;;3.58;;
76978;SDS011;65911;47.502;19.148;2023-05-29T12:08:57;5.93;;;2.95;;
76978;SDS011;65911;47.502;19.148;2023-05-29T12:12:03;6.07;;;3.30;;
76978;SDS011;65911;47.502;19.148;2023-05-29T12:15:06;6.82;;;3.35;;
76978;SDS011;65911;47.502;19.148;2023-05-29T12:18:10;6.60;;;3.30;;
76978;SDS011;65911;47.502;19.148;2023-05-29T12:21:13;4.25;;;3.10;;
76978;SDS011;65911;47.502;19.148;2023-05-29T12:24:17;6.03;;;3.70;;
76978;SDS011;65911;47.502;19.148;2023-05-29T12:27:21;5.30;;;3.17;;
76978;SDS011;65911;47.502;19.148;2023-05-29T12:30:23;8.15;;;3.45;;
76978;SDS011;65911;47.502;19.148;2023-05-29T12:33:34;5.60;;;2.90;;
76978;SDS011;65911;47.502;19.148;2023-05-29T12:36:39;5.70;;;3.17;;
76978;SDS011;65911;47.502;19.148;2023-05-29T12:39:45;8.45;;;3.15;;
76978;SDS011;65911;47.502;19.148;2023-05-29T12:43:14;10.48;;;3.13;;
76978;SDS011;65911;47.502;19.148;2023-05-29T12:46:18;5.60;;;3.10;;
76978;SDS011;65911;47.502;19.148;2023-05-29T12:49:20;4.57;;;2.33;;
76978;SDS011;65911;47.502;19.148;2023-05-29T12:52:23;6.35;;;2.58;;
76978;SDS011;65911;47.502;19.148;2023-05-29T12:55:26;4.65;;;2.72;;
76978;SDS011;65911;47.502;19.148;2023-05-29T12:58:29;7.30;;;2.83;;
76978;SDS011;65911;47.502;19.148;2023-05-29T13:01:31;8.63;;;3.05;;
76978;SDS011;65911;47.502;19.148;2023-05-29T13:04:36;8.23;;;2.85;;
76978;SDS011;65911;47.502;19.148;2023-05-29T13:07:39;5.72;;;2.85;;
76978;SDS011;65911;47.502;19.148;2023-05-29T13:10:41;5.03;;;3.27;;
76978;SDS011;65911;47.502;19.148;2023-05-29T13:13:43;6.22;;;2.72;;
76978;SDS011;65911;47.502;19.148;2023-05-29T13:16:46;4.93;;;3.00;;
76978;SDS011;65911;47.502;19.148;2023-05-29T13:19:48;6.70;;;3.33;;
76978;SDS011;65911;47.502;19.148;2023-05-29T13:22:51;9.50;;;3.10;;
76978;SDS011;65911;47.502;19.148;2023-05-29T13:25:55;5.68;;;3.20;;
76978;SDS011;65911;47.502;19.148;2023-05-29T13:28:58;6.72;;;3.50;;
76978;SDS011;65911;47.502;19.148;2023-05-29T13:32:00;4.75;;;2.70;;
76978;SDS011;65911;47.502;19.148;2023-05-29T13:35:05;4.87;;;3.00;;
76978;SDS011;65911;47.502;19.148;2023-05-29T13:38:08;4.82;;;2.63;;
76978;SDS011;65911;47.502;19.148;2023-05-29T13:41:10;6.22;;;3.08;;
76978;SDS011;65911;47.502;19.148;2023-05-29T13:44:12;7.53;;;3.20;;
76978;SDS011;65911;47.502;19.148;2023-05-29T13:47:15;5.73;;;3.20;;
76978;SDS011;65911;47.502;19.148;2023-05-29T13:50:17;6.28;;;3.00;;
76978;SDS011;65911;47.502;19.148;2023-05-29T13:53:19;4.43;;;2.72;;
76978;SDS011;65911;47.502;19.148;2023-05-29T13:56:22;6.03;;;2.97;;
76978;SDS011;65911;47.502;19.148;2023-05-29T13:59:24;4.50;;;3.03;;
76978;SDS011;65911;47.502;19.148;2023-05-29T14:02:26;5.85;;;3.05;;
76978;SDS011;65911;47.502;19.148;2023-05-29T14:05:29;7.20;;;3.00;;
76978;SDS011;65911;47.502;19.148;2023-05-29T14:08:31;5.10;;;3.13;;
76978;SDS011;65911;47.502;19.148;2023-05-29T14:11:33;5.03;;;2.60;;
76978;SDS011;65911;47.502;19.148;2023-05-29T14:14:38;4.90;;;3.13;;
76978;SDS011;65911;47.502;19.148;2023-05-29T14:17:41;4.80;;;3.15;;
76978;SDS011;65911;47.502;19.148;2023-05-29T14:20:43;5.22;;;2.97;;
76978;SDS011;65911;47.502;19.148;2023-05-29T14:23:50;7.33;;;3.17;;
76978;SDS011;65911;47.502;19.148;2023-05-29T14:26:52;4.85;;;2.83;;
76978;SDS011;65911;47.502;19.148;2023-05-29T14:29:54;7.32;;;3.00;;
76978;SDS011;65911;47.502;19.148;2023-05-29T14:32:57;8.45;;;3.90;;
76978;SDS011;65911;47.502;19.148;2023-05-29T14:36:02;5.33;;;3.17;;
76978;SDS011;65911;47.502;19.148;2023-05-29T14:39:05;5.10;;;2.75;;
76978;SDS011;65911;47.502;19.148;2023-05-29T14:42:07;6.10;;;2.80;;
76978;SDS011;65911;47.502;19.148;2023-05-29T14:45:10;4.30;;;3.00;;
76978;SDS011;65911;47.502;19.148;2023-05-29T14:48:12;6.67;;;3.10;;
76978;SDS011;65911;47.502;19.148;2023-05-29T14:51:14;6.18;;;2.97;;
76978;SDS011;65911;47.502;19.148;2023-05-29T14:54:18;5.53;;;3.10;;
76978;SDS011;65911;47.502;19.148;2023-05-29T14:57:20;4.50;;;2.85;;
76978;SDS011;65911;47.502;19.148;2023-05-29T15:00:22;5.32;;;3.00;;
76978;SDS011;65911;47.502;19.148;2023-05-29T15:03:24;5.28;;;3.40;;
76978;SDS011;65911;47.502;19.148;2023-05-29T15:06:28;5.47;;;3.45;;
76978;SDS011;65911;47.502;19.148;2023-05-29T15:09:32;7.13;;;3.50;;
76978;SDS011;65911;47.502;19.148;2023-05-29T15:12:34;5.93;;;3.67;;
76978;SDS011;65911;47.502;19.148;2023-05-29T15:15:36;7.53;;;3.95;;
76978;SDS011;65911;47.502;19.148;2023-05-29T15:18:49;6.85;;;3.10;;
76978;SDS011;65911;47.502;19.148;2023-05-29T15:21:51;6.00;;;3.80;;
76978;SDS011;65911;47.502;19.148;2023-05-29T15:24:53;6.00;;;3.20;;
76978;SDS011;65911;47.502;19.148;2023-05-29T15:27:56;5.20;;;3.38;;
76978;SDS011;65911;47.502;19.148;2023-05-29T15:30:58;5.45;;;3.80;;
76978;SDS011;65911;47.502;19.148;2023-05-29T15:34:00;6.53;;;3.50;;
76978;SDS011;65911;47.502;19.148;2023-05-29T15:37:03;6.07;;;3.70;;
76978;SDS011;65911;47.502;19.148;2023-05-29T15:40:05;5.93;;;3.42;;
76978;SDS011;65911;47.502;19.148;2023-05-29T15:43:09;5.38;;;3.67;;
76978;SDS011;65911;47.502;19.148;2023-05-29T15:46:11;7.50;;;3.58;;
76978;SDS011;65911;47.502;19.148;2023-05-29T15:49:13;6.30;;;3.58;;
76978;SDS011;65911;47.502;19.148;2023-05-29T15:52:15;6.45;;;3.47;;
76978;SDS011;65911;47.502;19.148;2023-05-29T15:55:18;6.50;;;4.00;;
76978;SDS011;65911;47.502;19.148;2023-05-29T15:58:20;5.50;;;3.75;;
76978;SDS011;65911;47.502;19.148;2023-05-29T16:01:23;8.30;;;3.70;;
76978;SDS011;65911;47.502;19.148;2023-05-29T16:04:26;6.20;;;3.30;;
76978;SDS011;65911;47.502;19.148;2023-05-29T16:07:29;6.35;;;3.53;;
76978;SDS011;65911;47.502;19.148;2023-05-29T16:10:31;8.20;;;3.20;;
76978;SDS011;65911;47.502;19.148;2023-05-29T16:13:33;6.35;;;3.30;;
76978;SDS011;65911;47.502;19.148;2023-05-29T16:16:37;5.23;;;3.47;;
76978;SDS011;65911;47.502;19.148;2023-05-29T16:19:39;5.28;;;3.80;;
76978;SDS011;65911;47.502;19.148;2023-05-29T16:22:42;6.68;;;3.55;;
76978;SDS011;65911;47.502;19.148;2023-05-29T16:25:44;5.70;;;3.17;;
76978;SDS011;65911;47.502;19.148;2023-05-29T16:28:46;6.17;;;3.30;;
76978;SDS011;65911;47.502;19.148;2023-05-29T16:31:48;5.95;;;3.45;;
76978;SDS011;65911;47.502;19.148;2023-05-29T16:34:51;5.13;;;3.20;;
76978;SDS011;65911;47.502;19.148;2023-05-29T16:37:56;5.70;;;3.88;;
76978;SDS011;65911;47.502;19.148;2023-05-29T16:40:59;5.13;;;3.27;;
76978;SDS011;65911;47.502;19.148;2023-05-29T16:44:01;4.47;;;3.03;;
76978;SDS011;65911;47.502;19.148;2023-05-29T16:47:04;7.47;;;3.13;;
76978;SDS011;65911;47.502;19.148;2023-05-29T16:50:06;5.37;;;2.93;;
76978;SDS011;65911;47.502;19.148;2023-05-29T16:53:09;5.75;;;2.88;;
76978;SDS011;65911;47.502;19.148;2023-05-29T16:56:11;5.38;;;3.20;;
76978;SDS011;65911;47.502;19.148;2023-05-29T16:59:14;4.53;;;3.10;;
76978;SDS011;65911;47.502;19.148;2023-05-29T17:02:17;5.87;;;3.13;;
76978;SDS011;65911;47.502;19.148;2023-05-29T17:05:21;4.93;;;3.22;;
76978;SDS011;65911;47.502;19.148;2023-05-29T17:08:23;5.10;;;2.78;;
76978;SDS011;65911;47.502;19.148;2023-05-29T17:11:26;4.22;;;3.13;;
76978;SDS011;65911;47.502;19.148;2023-05-29T17:14:28;5.80;;;3.43;;
76978;SDS011;65911;47.502;19.148;2023-05-29T17:17:31;5.57;;;3.40;;
76978;SDS011;65911;47.502;19.148;2023-05-29T17:20:33;4.95;;;3.25;;
76978;SDS011;65911;47.502;19.148;2023-05-29T17:23:37;7.10;;;3.88;;
76978;SDS011;65911;47.502;19.148;2023-05-29T17:26:39;8.03;;;4.23;;
76978;SDS011;65911;47.502;19.148;2023-05-29T17:29:42;8.27;;;3.80;;
76978;SDS011;65911;47.502;19.148;2023-05-29T17:32:44;8.15;;;4.70;;
76978;SDS011;65911;47.502;19.148;2023-05-29T17:35:47;6.33;;;3.63;;
76978;SDS011;65911;47.502;19.148;2023-05-29T17:38:49;8.73;;;3.70;;
76978;SDS011;65911;47.502;19.148;2023-05-29T17:41:53;7.68;;;4.00;;
76978;SDS011;65911;47.502;19.148;2023-05-29T17:44:56;8.82;;;4.10;;
76978;SDS011;65911;47.502;19.148;2023-05-29T17:47:58;5.23;;;3.37;;
76978;SDS011;65911;47.502;19.148;2023-05-29T17:51:01;6.80;;;3.78;;
76978;SDS011;65911;47.502;19.148;2023-05-29T17:54:03;7.93;;;3.75;;
76978;SDS011;65911;47.502;19.148;2023-05-29T17:57:12;6.45;;;4.13;;
76978;SDS011;65911;47.502;19.148;2023-05-29T18:00:15;6.33;;;3.70;;
76978;SDS011;65911;47.502;19.148;2023-05-29T18:03:18;6.50;;;3.63;;
76978;SDS011;65911;47.502;19.148;2023-05-29T18:06:21;8.25;;;3.95;;
76978;SDS011;65911;47.502;19.148;2023-05-29T18:09:23;6.03;;;4.07;;
76978;SDS011;65911;47.502;19.148;2023-05-29T18:12:25;6.32;;;3.80;;
76978;SDS011;65911;47.502;19.148;2023-05-29T18:15:45;8.43;;;3.70;;
76978;SDS011;65911;47.502;19.148;2023-05-29T18:18:47;7.82;;;3.78;;
76978;SDS011;65911;47.502;19.148;2023-05-29T18:21:50;8.55;;;4.38;;
76978;SDS011;65911;47.502;19.148;2023-05-29T18:24:52;6.38;;;4.10;;
76978;SDS011;65911;47.502;19.148;2023-05-29T18:27:54;5.72;;;3.50;;
76978;SDS011;65911;47.502;19.148;2023-05-29T18:30:59;8.67;;;4.33;;
76978;SDS011;65911;47.502;19.148;2023-05-29T18:34:02;7.40;;;4.22;;
76978;SDS011;65911;47.502;19.148;2023-05-29T18:37:05;9.73;;;4.10;;